Trout Dale, Virginia
Current Conditions -  °F | °C
As of 12:35 AM on Thursday 23 Oct 2014 (Local Time) from KMKJ Reporting Station
Overcast Overcast  
Wind Chill: 46°   Ceiling: 1800
Heat Index: 46°   Visibility: 10mi
Dew Point: 39°   Wind: 3mph
Humidity: 78%   Direction: 260°W
Pressure: 30.16"   Gusts: NA
Location:  36.7°N, 81.44°W
Report Text: KMKJ 230435Z AUTO 26003KT 10SM OVC018 08/04 A3016 RMK AO2 T00770040
Loading
Personal Weather Stations






























Interactive Weather Map
Tropical Storm Tracking
New forecast layout! Learn more

10-Day Weather Forecast

Advertisements
Track Severe Weather on mobile